Time;durP1;ratioP1;P1;durP2;ratioP2;P2;SDS_P1;SDS_P2;PMS_P1;PMS_P2;Temp;Humidity;BMP_temperature;BMP_pressure;BME280_temperature;BME280_humidity;BME280_pressure;Samples;Min_cycle;Max_cycle;Signal;HPM_P1;HPM_P2
2021/12/14 00:01:37;;;;;;;231.07;88.67;;;;;;;1.22;82.65;100237.58;1744161;82;21509;-57
2021/12/14 00:04:19;;;;;;;223.32;90.03;;;;;;;1.25;82.61;100239.73;1725658;82;20968;-59
2021/12/14 00:06:48;;;;;;;223.65;89.40;;;;;;;1.29;82.48;100241.88;1746393;81;20976;-54
2021/12/14 00:09:28;;;;;;;227.38;90.47;;;;;;;1.33;82.23;100240.59;1746348;82;21006;-60
2021/12/14 00:17:26;;;;;;;241.63;89.85;;;;;;;1.27;82.22;100242.33;1746386;82;20968;-59
2021/12/14 00:19:56;;;;;;;217.32;86.92;;;;;;;1.28;82.17;100237.14;1745368;82;21452;-59
2021/12/14 00:24:06;;;;;;;238.15;92.10;;;;;;;1.31;82.02;100238.84;1746527;82;20975;-57
2021/12/14 00:25:05;;;;;;;223.25;88.52;;;;;;;1.28;82.10;100228.52;1742341;82;20982;-59
2021/12/14 00:27:31;;;;;;;221.50;88.58;;;;;;;1.28;82.29;100233.25;1746373;82;21480;-55
2021/12/14 00:30:00;;;;;;;220.17;88.85;;;;;;;1.32;82.25;100235.41;1746364;82;21022;-57
2021/12/14 00:32:33;;;;;;;219.77;89.37;;;;;;;1.33;82.27;100243.19;1746371;82;20976;-57
2021/12/14 00:35:02;;;;;;;218.33;89.70;;;;;;;1.37;82.13;100247.92;1746374;81;20940;-56
2021/12/14 00:37:33;;;;;;;221.30;90.83;;;;;;;1.39;82.05;100241.45;1746373;82;20980;-58
2021/12/14 00:40:04;;;;;;;229.78;92.62;;;;;;;1.39;81.96;100242.74;1747836;82;21067;-57
2021/12/14 00:42:30;;;;;;;222.75;92.35;;;;;;;1.42;81.86;100242.30;1751640;82;21004;-58
2021/12/14 00:44:56;;;;;;;238.77;94.65;;;;;;;1.40;82.00;100243.16;1752028;82;21462;-55
2021/12/14 00:47:22;;;;;;;235.23;96.22;;;;;;;1.40;81.97;100241.45;1752039;82;20971;-56
2021/12/14 00:49:52;;;;;;;227.80;92.88;;;;;;;1.36;82.12;100238.41;1751993;82;21026;-58
2021/12/14 00:52:16;;;;;;;229.95;92.45;;;;;;;1.31;82.25;100237.55;1751744;82;21485;-55
2021/12/14 00:54:42;;;;;;;234.18;94.35;;;;;;;1.34;82.16;100236.27;1752079;82;20980;-57
2021/12/14 00:57:09;;;;;;;229.75;90.22;;;;;;;1.34;81.92;100237.56;1752009;82;20983;-58
2021/12/14 00:59:36;;;;;;;218.48;89.17;;;;;;;1.36;81.95;100235.82;1752100;82;21015;-56
2021/12/14 01:02:10;;;;;;;238.50;91.17;;;;;;;1.37;81.98;100239.30;1752054;82;20961;-57
2021/12/14 01:04:41;;;;;;;223.65;88.80;;;;;;;1.39;81.84;100240.16;1752132;82;20983;-59
2021/12/14 01:07:10;;;;;;;223.72;90.40;;;;;;;1.37;82.13;100238.86;1747440;82;20998;-57
2021/12/14 01:09:40;;;;;;;233.68;91.30;;;;;;;1.36;82.29;100238.85;1751959;81;21436;-58
2021/12/14 01:12:15;;;;;;;224.52;92.45;;;;;;;1.36;82.49;100239.70;1751982;81;21019;-56
2021/12/14 01:14:47;;;;;;;224.73;90.17;;;;;;;1.38;82.72;100243.16;1751689;82;21013;-58
2021/12/14 01:20:04;;;;;;;227.05;93.27;;;;;;;1.34;82.56;100233.67;1752060;82;21185;-55
2021/12/14 01:22:46;;;;;;;236.50;95.10;;;;;;;1.32;82.93;100231.52;1752229;82;20999;-57
2021/12/14 01:25:17;;;;;;;232.85;92.67;;;;;;;1.32;83.08;100235.41;1751399;82;21394;-55
2021/12/14 01:28:00;;;;;;;216.53;87.95;;;;;;;1.31;83.18;100230.66;1750836;82;20948;-59
2021/12/14 01:30:52;;;;;;;226.00;89.25;;;;;;;1.30;83.26;100228.92;1752156;82;21484;-60
2021/12/14 01:33:13;;;;;;;232.52;87.80;;;;;;;1.33;83.30;100231.52;1751922;81;21391;-57
2021/12/14 01:35:43;;;;;;;216.50;89.75;;;;;;;1.38;83.38;100234.08;1751993;81;20955;-57
2021/12/14 01:39:09;;;;;;;222.30;89.37;;;;;;;1.34;83.31;100231.08;1752127;81;21011;-57
2021/12/14 01:40:55;;;;;;;210.93;87.35;;;;;;;1.32;83.77;100232.38;1746263;80;20968;-57
2021/12/14 01:43:32;;;;;;;222.75;88.17;;;;;;;1.32;83.84;100227.19;1754882;81;20980;-58
2021/12/14 01:46:01;;;;;;;;;;;;;;;1.40;83.83;100225.02;1751783;82;21468;-59
2021/12/14 01:48:28;;;;;;;223.60;92.45;;;;;;;1.40;83.79;100220.72;1754556;82;20114;-55
2021/12/14 01:50:59;;;;;;;244.13;97.88;;;;;;;1.46;83.77;100224.57;1755028;82;21488;-57
2021/12/14 01:53:25;;;;;;;247.88;101.02;;;;;;;1.48;83.68;100226.72;1754820;81;20964;-59
2021/12/14 01:55:57;;;;;;;244.05;99.25;;;;;;;1.47;83.62;100229.31;1754790;82;20956;-55
2021/12/14 01:58:28;;;;;;;244.28;98.85;;;;;;;1.46;83.75;100228.91;1754825;82;21504;-55
2021/12/14 02:01:00;;;;;;;233.75;97.92;;;;;;;1.47;83.81;100235.34;1751914;80;21719;-58
2021/12/14 02:03:41;;;;;;;232.07;94.50;;;;;;;1.47;83.87;100239.68;1754239;82;21464;-59
2021/12/14 02:06:07;;;;;;;228.37;91.63;;;;;;;1.50;83.65;100247.02;1754320;82;21448;-58
2021/12/14 02:08:37;;;;;;;228.35;91.02;;;;;;;1.49;83.53;100244.42;1727370;82;20998;-57
2021/12/14 02:11:07;;;;;;;225.68;90.70;;;;;;;1.43;83.68;100244.01;1754743;81;20975;-54
2021/12/14 02:13:38;;;;;;;215.95;87.92;;;;;;;1.44;83.68;100244.45;1754717;82;21039;-55
2021/12/14 02:16:07;;;;;;;205.00;84.00;;;;;;;1.49;83.74;100245.72;1752505;82;20991;-57
2021/12/14 02:18:33;;;;;;;210.45;84.40;;;;;;;1.51;83.76;100242.27;1754744;82;20979;-57
2021/12/14 02:21:11;;;;;;;203.25;85.10;;;;;;;1.53;83.65;100244.87;1754847;82;20987;-57
2021/12/14 02:23:41;;;;;;;201.62;84.17;;;;;;;1.58;83.54;100241.80;1754819;82;20952;-57
2021/12/14 02:26:13;;;;;;;198.93;83.10;;;;;;;1.65;83.30;100239.61;1754730;82;20978;-56
2021/12/14 02:28:39;;;;;;;209.22;83.85;;;;;;;1.57;83.32;100232.31;1754738;82;21441;-56
2021/12/14 02:31:10;;;;;;;208.75;84.22;;;;;;;1.58;83.43;100226.69;1754694;82;21465;-58
2021/12/14 02:33:39;;;;;;;208.43;84.25;;;;;;;1.59;83.54;100232.31;1754748;82;21520;-58
2021/12/14 02:36:13;;;;;;;202.13;85.83;;;;;;;1.58;83.56;100224.09;1751944;82;20990;-54
2021/12/14 02:38:45;;;;;;;197.68;83.37;;;;;;;1.59;83.69;100222.80;1750398;82;20987;-57
2021/12/14 02:41:12;;;;;;;195.60;81.40;;;;;;;1.56;83.78;100219.35;1741732;82;20981;-57
2021/12/14 02:43:48;;;;;;;196.40;77.17;;;;;;;1.54;83.95;100218.91;1734551;83;20968;-58
2021/12/14 02:46:23;;;;;;;188.18;76.60;;;;;;;1.56;83.88;100220.65;1734551;82;21550;-53
2021/12/14 02:48:53;;;;;;;202.25;77.47;;;;;;;1.61;83.90;100222.80;1734451;82;21015;-55
2021/12/14 02:51:42;;;;;;;200.55;77.92;;;;;;;1.51;84.38;100228.02;1734579;83;21006;-54
2021/12/14 02:54:16;;;;;;;187.15;77.10;;;;;;;1.53;84.31;100222.83;1734490;82;21493;-55
2021/12/14 02:56:46;;;;;;;193.93;79.53;;;;;;;1.54;84.29;100224.53;1734410;81;20949;-57
2021/12/14 02:59:20;;;;;;;188.60;78.12;;;;;;;1.55;84.36;100218.50;1734497;83;21818;-57
2021/12/14 03:01:49;;;;;;;199.93;77.22;;;;;;;1.59;84.30;100220.20;1734112;82;20967;-59
2021/12/14 03:04:16;;;;;;;192.98;76.67;;;;;;;1.64;84.28;100213.28;1734405;83;20989;-59
2021/12/14 03:08:56;;;;;;;194.37;79.45;;;;;;;1.67;84.16;100213.27;1793381;78;22918;-57
2021/12/14 03:11:14;;;;;;;190.62;81.08;;;;;;;1.68;84.05;100207.64;1778234;80;21053;-58
2021/12/14 03:13:48;;;;;;;191.73;80.47;;;;;;;1.72;83.92;100210.20;1763496;80;21189;-59
2021/12/14 03:16:30;;;;;;;206.57;81.97;;;;;;;1.69;83.94;100210.65;1782375;80;21064;-54
2021/12/14 03:18:58;;;;;;;203.10;82.27;;;;;;;1.68;84.02;100212.39;1767218;80;21074;-57
2021/12/14 03:21:32;;;;;;;193.52;79.85;;;;;;;1.61;83.97;100209.83;1785039;80;20998;-55
2021/12/14 03:24:03;;;;;;;207.90;79.95;;;;;;;1.60;84.10;100205.50;1790622;80;21046;-55
2021/12/14 03:26:33;;;;;;;199.32;78.83;;;;;;;1.64;83.90;100204.20;1771600;80;21002;-57
2021/12/14 03:29:07;;;;;;;197.25;76.90;;;;;;;1.63;83.85;100206.80;1789874;80;20978;-56
2021/12/14 03:31:37;;;;;;;198.10;78.05;;;;;;;1.59;83.85;100207.24;1786833;80;20987;-57
2021/12/14 03:34:11;;;;;;;205.25;81.95;;;;;;;1.62;83.97;100207.65;1796999;80;20994;-56
2021/12/14 03:36:45;;;;;;;189.37;79.25;;;;;;;1.66;83.81;100210.23;1797492;80;21519;-55
2021/12/14 03:39:19;;;;;;;193.95;78.47;;;;;;;1.72;83.63;100214.09;1796356;80;20983;-57
2021/12/14 03:41:56;;;;;;;194.45;76.77;;;;;;;1.73;83.62;100205.45;1775966;80;21042;-51
2021/12/14 03:44:36;;;;;;;202.18;77.55;;;;;;;1.72;83.48;100202.86;1793826;80;21002;-56
2021/12/14 03:47:10;;;;;;;199.93;80.12;;;;;;;1.75;83.48;100205.45;1792338;80;20991;-51
2021/12/14 03:49:50;;;;;;;201.52;80.60;;;;;;;1.74;83.41;100205.02;1774788;80;21006;-57
2021/12/14 03:52:21;;;;;;;194.57;77.85;;;;;;;1.77;83.38;100205.45;1780121;80;21534;-58
2021/12/14 03:54:47;;;;;;;186.88;77.17;;;;;;;1.67;83.62;100202.02;1792708;80;21057;-60
2021/12/14 03:57:14;;;;;;;187.62;75.47;;;;;;;1.66;83.66;100195.98;1775308;80;21014;-59
2021/12/14 03:59:41;;;;;;;175.78;72.58;;;;;;;1.67;83.77;100196.42;1786042;80;21002;-58
2021/12/14 04:02:10;;;;;;;174.23;72.85;;;;;;;1.64;83.99;100196.42;1790094;80;21010;-56
2021/12/14 04:04:53;;;;;;;166.90;68.52;;;;;;;1.62;84.06;100194.28;1795991;80;20998;-55
2021/12/14 04:07:20;;;;;;;177.12;70.40;;;;;;;1.54;84.26;100190.39;1774502;80;21495;-59
2021/12/14 04:09:47;;;;;;;169.75;69.72;;;;;;;1.59;84.06;100194.72;1790693;80;21022;-54
2021/12/14 04:12:17;;;;;;;175.50;68.35;;;;;;;1.60;84.16;100193.84;1764783;80;21585;-51
2021/12/14 04:14:54;;;;;;;165.00;68.57;;;;;;;1.65;83.97;100198.58;1776474;80;21472;-57
2021/12/14 04:17:24;;;;;;;164.72;69.25;;;;;;;1.65;84.02;100193.39;1793805;80;21008;-57
2021/12/14 04:19:51;;;;;;;171.07;69.50;;;;;;;1.67;84.08;100199.42;1782932;80;20987;-58
2021/12/14 04:22:23;;;;;;;174.72;69.50;;;;;;;1.62;84.24;100198.58;1771020;80;21058;-61
2021/12/14 04:24:54;;;;;;;175.62;70.35;;;;;;;1.60;84.19;100199.91;1789955;80;21046;-57
2021/12/14 04:27:25;;;;;;;175.15;70.47;;;;;;;1.62;84.07;100193.39;1796087;80;21629;-56
2021/12/14 04:29:52;;;;;;;175.68;71.47;;;;;;;1.66;83.89;100193.83;1795085;80;21524;-59
2021/12/14 04:32:20;;;;;;;178.40;72.03;;;;;;;1.68;83.99;100198.57;1791283;80;20991;-55
2021/12/14 04:34:49;;;;;;;182.88;75.55;;;;;;;1.75;83.90;100201.56;1763929;80;21045;-58
2021/12/14 04:37:16;;;;;;;197.20;76.20;;;;;;;1.72;83.93;100197.68;1763714;80;21045;-58
2021/12/14 04:39:47;;;;;;;189.35;75.97;;;;;;;1.74;83.91;100190.75;1767191;80;21006;-57
2021/12/14 04:53:52;;;;;;;188.95;74.50;;;;;;;1.61;84.29;100190.39;1768651;80;20994;-57
2021/12/14 04:56:23;;;;;;;193.97;77.47;;;;;;;1.60;84.65;100193.84;1763517;80;20993;-59
2021/12/14 04:59:03;;;;;;;189.75;75.60;;;;;;;1.69;84.41;100188.61;1773327;80;21585;-58
2021/12/14 05:01:37;;;;;;;179.93;72.97;;;;;;;1.69;84.36;100184.72;1782452;80;21045;-56
2021/12/14 05:04:07;;;;;;;190.73;74.25;;;;;;;1.72;84.28;100192.48;1793216;80;21507;-59
2021/12/14 05:06:53;;;;;;;186.07;71.85;;;;;;;1.76;84.09;100191.59;1788210;80;21003;-54
2021/12/14 05:09:30;;;;;;;180.80;73.97;;;;;;;1.80;84.01;100192.03;1770091;80;21491;-56
2021/12/14 05:12:10;;;;;;;181.63;72.13;;;;;;;1.85;83.83;100195.44;1793237;80;21058;-56
2021/12/14 05:14:40;;;;;;;186.73;72.92;;;;;;;1.85;83.68;100198.03;1778994;80;21018;-53
2021/12/14 05:17:11;;;;;;;189.35;73.50;;;;;;;1.88;83.66;100197.17;1768374;80;20979;-59
2021/12/14 05:19:41;;;;;;;195.70;77.92;;;;;;;1.91;83.54;100194.55;1783133;80;21476;-60
2021/12/14 05:22:18;;;;;;;197.37;76.07;;;;;;;1.89;83.53;100195.88;1772544;80;20998;-55
2021/12/14 05:24:52;;;;;;;204.43;77.30;;;;;;;1.91;83.53;100204.51;1788296;80;20987;-54
2021/12/14 05:27:25;;;;;;;203.47;79.10;;;;;;;1.83;83.47;100206.27;1773018;80;21539;-60
2021/12/14 05:29:52;;;;;;;200.32;75.35;;;;;;;1.81;83.73;100201.52;1788577;80;21042;-56
2021/12/14 05:32:18;;;;;;;191.57;72.97;;;;;;;1.86;83.56;100202.81;1768752;80;21010;-57
2021/12/14 05:34:49;;;;;;;192.10;72.60;;;;;;;1.86;83.42;100199.77;1772990;80;21002;-55
2021/12/14 05:37:27;;;;;;;186.43;74.10;;;;;;;1.88;83.48;100195.44;1763816;80;21001;-55
2021/12/14 05:40:00;;;;;;;197.55;72.80;;;;;;;1.89;83.42;100195.88;1782609;80;21877;-57
2021/12/14 05:45:13;;;;;;;200.75;78.02;;;;;;;1.96;83.45;100193.23;1791318;80;21437;-53
2021/12/14 05:47:50;;;;;;;198.20;75.67;;;;;;;1.92;83.28;100185.45;1783349;80;21010;-56
2021/12/14 05:50:26;;;;;;;220.03;79.73;;;;;;;1.97;83.29;100180.70;1775752;80;21018;-52
2021/12/14 05:52:53;;;;;;;215.92;83.12;;;;;;;1.96;83.35;100172.48;1782639;80;21015;-53
2021/12/14 05:55:26;;;;;;;218.52;81.78;;;;;;;1.96;83.35;100172.48;1794738;80;21042;-56
2021/12/14 05:57:55;;;;;;;212.53;82.22;;;;;;;1.96;83.23;100173.34;1790301;80;20990;-50
2021/12/14 06:00:21;;;;;;;218.65;83.67;;;;;;;1.95;83.14;100166.85;1760017;80;20983;-54
2021/12/14 06:02:48;;;;;;;218.82;83.65;;;;;;;1.92;83.24;100165.16;1786673;80;21011;-55
2021/12/14 06:05:18;;;;;;;226.22;84.92;;;;;;;1.90;83.33;100168.20;1772564;80;21025;-55
2021/12/14 06:07:44;;;;;;;234.57;81.53;;;;;;;1.85;83.46;100165.61;1787761;80;21006;-58
2021/12/14 06:10:13;;;;;;;229.82;79.82;;;;;;;1.79;83.77;100164.81;1784187;80;21062;-56
2021/12/14 06:12:40;;;;;;;222.85;79.27;;;;;;;1.85;83.67;100166.06;1789055;80;21564;-59
2021/12/14 06:15:13;;;;;;;229.05;77.75;;;;;;;1.90;83.55;100165.16;1779231;80;21089;-58
2021/12/14 06:17:41;;;;;;;214.63;79.35;;;;;;;1.91;83.35;100167.30;1778650;80;21001;-59
2021/12/14 06:20:10;;;;;;;;;;;;;;;1.89;83.54;100163.86;1782907;80;21007;-56
2021/12/14 06:22:39;;;;;;;223.22;79.97;;;;;;;1.88;83.53;100171.23;1796160;80;20111;-61
2021/12/14 06:25:16;;;;;;;219.65;78.60;;;;;;;1.88;83.59;100166.05;1796917;80;21563;-57
2021/12/14 06:27:45;;;;;;;220.10;79.37;;;;;;;1.91;83.51;100161.70;1784579;80;21041;-57
2021/12/14 06:30:19;;;;;;;234.37;82.42;;;;;;;1.92;83.34;100163.86;1791747;80;21567;-57
2021/12/14 06:32:50;;;;;;;230.75;82.00;;;;;;;1.94;83.46;100159.52;1770254;80;21034;-54
2021/12/14 06:35:35;;;;;;;238.12;84.52;;;;;;;1.97;83.27;100156.06;1773966;80;21029;-58
2021/12/14 06:38:31;;;;;;;246.05;83.25;;;;;;;1.96;83.22;100160.36;1763662;80;20998;-56
2021/12/14 06:41:16;;;;;;;241.40;83.15;;;;;;;1.96;83.24;100161.66;1787941;80;20971;-60
2021/12/14 06:43:48;;;;;;;228.20;81.40;;;;;;;1.92;83.23;100166.01;1769492;80;21495;-59
2021/12/14 06:46:26;;;;;;;224.50;82.25;;;;;;;1.94;83.27;100178.12;1773160;80;21465;-61
2021/12/14 06:49:02;;;;;;;227.45;79.67;;;;;;;1.91;83.49;100173.38;1763706;80;21001;-56
2021/12/14 06:51:34;;;;;;;218.52;80.80;;;;;;;1.94;83.53;100170.34;1768702;80;20994;-59
2021/12/14 06:54:05;;;;;;;238.25;81.22;;;;;;;1.96;83.55;100169.44;1769303;80;21538;-58
2021/12/14 06:56:33;;;;;;;228.80;78.83;;;;;;;1.92;83.62;100167.30;1767714;80;21795;-57
2021/12/14 06:59:05;;;;;;;218.80;78.12;;;;;;;1.92;83.78;100172.48;1788298;80;21006;-58
2021/12/14 07:01:36;;;;;;;225.25;79.97;;;;;;;1.96;83.65;100166.00;1792142;80;21015;-57
2021/12/14 07:04:10;;;;;;;211.47;77.82;;;;;;;1.98;83.64;100160.36;1788539;80;21038;-57
2021/12/14 07:06:44;;;;;;;232.07;82.25;;;;;;;1.99;83.59;100159.05;1767899;80;21049;-58
2021/12/14 07:09:15;;;;;;;235.95;83.97;;;;;;;2.03;83.67;100162.05;1785128;80;21630;-57
2021/12/14 07:11:47;;;;;;;233.02;86.55;;;;;;;1.98;83.78;100161.66;1776846;80;21424;-59
2021/12/14 07:14:28;;;;;;;238.18;86.53;;;;;;;2.05;83.82;100167.23;1761794;80;21085;-57
2021/12/14 07:16:58;;;;;;;253.22;90.35;;;;;;;2.09;83.73;100168.52;1792602;80;21652;-57
2021/12/14 07:19:53;;;;;;;258.43;93.72;;;;;;;2.10;83.86;100171.52;1773017;80;21466;-55
2021/12/14 07:22:42;;;;;;;250.70;94.62;;;;;;;2.06;83.81;100176.75;1791203;80;21053;-57
2021/12/14 07:25:16;;;;;;;250.28;92.67;;;;;;;2.02;83.75;100182.39;1780152;80;21523;-57
2021/12/14 07:27:46;;;;;;;251.10;91.08;;;;;;;2.04;83.70;100174.61;1740433;80;21527;-56
2021/12/14 07:30:43;;;;;;;262.27;89.60;;;;;;;2.03;83.91;100170.28;1785257;80;20994;-55
2021/12/14 07:33:19;;;;;;;241.85;87.15;;;;;;;2.03;83.97;100171.58;1772644;80;21548;-60
2021/12/14 07:35:53;;;;;;;258.75;89.83;;;;;;;2.07;84.07;100176.75;1788581;80;21038;-57
2021/12/14 07:38:43;;;;;;;239.45;86.20;;;;;;;2.13;83.97;100177.14;1791354;80;20986;-54
2021/12/14 07:41:23;;;;;;;245.82;87.65;;;;;;;2.14;84.05;100172.36;1774489;80;21456;-59
2021/12/14 07:44:00;;;;;;;262.93;88.33;;;;;;;2.23;83.96;100170.14;1796068;80;21526;-61
2021/12/14 07:46:58;;;;;;;240.43;86.08;;;;;;;2.27;83.73;100170.54;1789206;80;21531;-58
2021/12/14 07:49:54;;;;;;;243.48;82.75;;;;;;;2.27;83.67;100171.84;1789665;80;21014;-58
2021/12/14 07:52:21;;;;;;;233.93;87.02;;;;;;;2.30;83.58;100167.93;1790982;80;21583;-56
2021/12/14 07:54:59;;;;;;;229.43;85.03;;;;;;;2.38;83.51;100173.05;1795132;80;20982;-59
2021/12/14 07:57:32;;;;;;;243.57;87.08;;;;;;;2.41;83.38;100170.45;1796085;80;21452;-59
2021/12/14 08:00:10;;;;;;;227.15;82.90;;;;;;;2.45;83.38;100173.44;1796110;80;21018;-58
2021/12/14 08:02:40;;;;;;;226.02;83.72;;;;;;;2.46;83.31;100169.98;1795884;80;20983;-56
2021/12/14 08:05:22;;;;;;;265.35;85.35;;;;;;;2.45;83.48;100169.09;1788070;80;21044;-58
2021/12/14 08:08:15;;;;;;;251.70;84.42;;;;;;;2.40;83.65;100168.30;1794755;80;21006;-54
2021/12/14 08:10:39;;;;;;;221.45;83.17;;;;;;;2.49;83.62;100166.03;1766100;80;21096;-54
2021/12/14 08:13:13;;;;;;;220.07;83.60;;;;;;;2.49;83.75;100163.44;1791669;80;21019;-54
2021/12/14 08:15:56;;;;;;;219.50;81.55;;;;;;;2.45;83.86;100163.91;1790156;80;21382;-60
2021/12/14 08:18:29;;;;;;;223.22;81.32;;;;;;;2.51;83.67;100160.42;1795437;80;21013;-55
2021/12/14 08:21:09;;;;;;;220.02;79.25;;;;;;;2.56;83.73;100156.47;1780912;80;21467;-59
2021/12/14 08:23:55;;;;;;;206.85;76.92;;;;;;;2.57;83.66;100153.02;1782574;80;21512;-58
2021/12/14 08:26:29;;;;;;;202.00;74.95;;;;;;;2.68;83.57;100170.66;1790268;80;21494;-60
2021/12/14 08:29:05;;;;;;;187.18;74.25;;;;;;;2.79;83.24;100167.95;1773376;80;21624;-55
2021/12/14 08:31:42;;;;;;;189.90;72.87;;;;;;;2.88;83.04;100167.42;1763991;80;21479;-55
2021/12/14 08:34:13;;;;;;;178.23;69.90;;;;;;;2.96;82.81;100171.23;1773416;80;20978;-56
2021/12/14 08:36:44;;;;;;;179.55;71.42;;;;;;;3.00;82.70;100159.95;1781199;80;21479;-57
2021/12/14 08:39:18;;;;;;;185.55;74.05;;;;;;;3.00;82.69;100170.34;1785857;80;21017;-57
2021/12/14 08:41:55;;;;;;;199.65;74.10;;;;;;;3.05;82.61;100173.73;1778979;80;21543;-59
2021/12/14 08:44:20;;;;;;;196.57;75.28;;;;;;;3.09;82.51;100169.37;1781627;80;21005;-58
2021/12/14 08:46:42;;;;;;;196.72;76.55;;;;;;;3.08;82.43;100171.11;1780194;80;21499;-57
2021/12/14 08:49:09;;;;;;;186.22;73.15;;;;;;;3.01;82.65;100166.86;1782254;80;20979;-54
2021/12/14 08:51:42;;;;;;;181.97;73.07;;;;;;;3.07;82.81;100168.11;1776092;80;21015;-57
2021/12/14 08:54:26;;;;;;;182.37;70.12;;;;;;;3.09;82.89;100170.67;1766746;80;21008;-57
2021/12/14 08:57:00;;;;;;;175.03;70.80;;;;;;;3.14;82.76;100170.19;1757063;81;21536;-56
2021/12/14 08:59:28;;;;;;;169.55;67.10;;;;;;;3.14;82.74;100182.33;1753229;81;21072;-59
2021/12/14 09:01:54;;;;;;;;;;;;;;;3.13;82.66;100168.48;1740458;81;21006;-53
2021/12/14 09:04:31;;;;;;;178.27;72.32;;;;;;;3.10;82.86;100163.75;1766171;81;20486;-59
2021/12/14 09:07:09;;;;;;;176.45;68.10;;;;;;;3.11;82.88;100161.56;1753050;81;20982;-56
2021/12/14 09:09:36;;;;;;;174.70;70.78;;;;;;;3.12;82.95;100169.80;1754230;81;21612;-58
2021/12/14 09:12:08;;;;;;;184.48;70.22;;;;;;;3.13;82.93;100162.40;1757333;81;21007;-56
2021/12/14 09:14:35;;;;;;;173.62;70.20;;;;;;;3.10;83.12;100170.25;1759711;80;21490;-57
2021/12/14 09:17:04;;;;;;;172.95;68.72;;;;;;;3.15;83.00;100156.33;1762156;81;21068;-56
2021/12/14 09:19:38;;;;;;;177.53;68.22;;;;;;;3.21;83.04;100154.09;1767254;81;21005;-55
2021/12/14 09:22:10;;;;;;;164.65;67.42;;;;;;;3.29;82.93;100157.45;1766882;80;21486;-55
2021/12/14 09:24:36;;;;;;;156.63;61.42;;;;;;;3.32;82.90;100150.08;1751243;80;21467;-59
2021/12/14 09:27:09;;;;;;;152.87;58.70;;;;;;;3.38;82.80;100149.54;1750975;81;21682;-58
2021/12/14 09:29:35;;;;;;;145.80;61.95;;;;;;;3.41;82.77;100141.70;1755680;81;21001;-58
2021/12/14 09:32:05;;;;;;;164.52;62.53;;;;;;;3.49;82.60;100138.16;1752237;81;21795;-56
2021/12/14 09:34:34;;;;;;;146.02;60.12;;;;;;;3.53;82.54;100139.41;1750626;80;20995;-58
2021/12/14 09:37:01;;;;;;;154.85;63.30;;;;;;;3.56;82.49;100135.45;1776195;79;21003;-53
2021/12/14 09:39:39;;;;;;;153.53;62.85;;;;;;;3.63;82.28;100131.03;1772166;79;21042;-55
2021/12/14 09:42:10;;;;;;;152.02;61.08;;;;;;;3.64;82.21;100133.62;1762554;80;21041;-53
2021/12/14 09:44:36;;;;;;;145.28;62.27;;;;;;;3.67;82.11;100131.86;1767530;79;21006;-55
2021/12/14 09:47:14;;;;;;;143.82;57.80;;;;;;;3.68;82.16;100134.89;1766226;79;21507;-56
2021/12/14 09:49:42;;;;;;;;;;;;;;;3.61;82.17;100127.59;1769183;79;21587;-54
2021/12/14 09:52:19;;;;;;;138.15;56.20;;;;;;;3.52;82.41;100123.38;1766624;79;20139;-57
2021/12/14 09:54:46;;;;;;;135.70;56.02;;;;;;;3.51;82.75;100124.69;1767910;79;21010;-56
2021/12/14 09:57:18;;;;;;;130.72;53.35;;;;;;;3.50;82.84;100130.34;1769850;79;21898;-52
2021/12/14 09:59:45;;;;;;;134.18;52.88;;;;;;;3.46;83.14;100121.72;1768021;79;21527;-60
2021/12/14 10:02:16;;;;;;;127.05;50.12;;;;;;;3.45;83.21;100108.73;1776814;79;21015;-55
2021/12/14 10:04:47;;;;;;;126.85;53.38;;;;;;;3.49;83.03;100110.85;1761429;79;21041;-55
2021/12/14 10:07:14;;;;;;;126.18;51.70;;;;;;;3.51;83.05;100103.88;1765287;79;21050;-58
2021/12/14 10:09:47;;;;;;;130.95;53.60;;;;;;;3.45;83.77;100103.53;1772395;79;21082;-55
2021/12/14 10:14:53;;;;;;;;;;;;;;;3.58;83.69;100101.63;1774517;79;21496;-59
2021/12/14 10:17:23;;;;;;;132.80;51.83;;;;;;;3.57;83.90;100098.17;1767774;79;20190;-55
2021/12/14 10:19:50;;;;;;;126.15;49.73;;;;;;;3.62;83.88;100096.79;1771168;79;21091;-59
2021/12/14 10:22:23;;;;;;;;;;;;;;;3.62;83.89;100101.98;1771154;79;20982;-56
2021/12/14 10:24:57;;;;;;;118.30;46.05;;;;;;;3.59;84.07;100104.20;1771588;79;20119;-55
2021/12/14 10:27:28;;;;;;;113.12;47.23;;;;;;;3.70;83.84;100094.11;1766364;79;21715;-57
2021/12/14 10:29:56;;;;;;;119.15;47.08;;;;;;;3.77;83.91;100096.59;1775811;79;21017;-56
2021/12/14 10:32:28;;;;;;;113.15;46.23;;;;;;;3.83;83.54;100096.48;1766877;79;20992;-56
2021/12/14 10:35:00;;;;;;;121.67;48.85;;;;;;;3.90;83.38;100092.52;1764143;79;21045;-56
2021/12/14 10:37:52;;;;;;;116.75;48.42;;;;;;;3.93;83.49;100095.05;1770438;80;21065;-55
2021/12/14 10:43:12;;;;;;;122.45;50.25;;;;;;;4.06;83.01;100095.30;1762473;79;21043;-59
2021/12/14 10:45:26;;;;;;;127.07;52.30;;;;;;;4.03;83.00;100097.48;1767597;79;21011;-57
2021/12/14 10:47:53;;;;;;;130.72;52.65;;;;;;;4.03;83.02;100085.77;1775158;79;21018;-58
2021/12/14 10:50:24;;;;;;;129.05;52.85;;;;;;;4.01;83.22;100085.39;1765089;79;21010;-56
2021/12/14 10:52:51;;;;;;;128.80;52.58;;;;;;;3.99;83.07;100097.13;1770156;79;20954;-58
2021/12/14 10:55:28;;;;;;;131.52;52.80;;;;;;;3.95;83.40;100093.30;1763778;79;20995;-55
2021/12/14 10:57:55;;;;;;;130.57;50.73;;;;;;;3.96;83.79;100089.80;1775753;79;21544;-54
2021/12/14 11:00:32;;;;;;;143.65;52.00;;;;;;;3.93;84.08;100085.94;1774002;79;21550;-59
2021/12/14 11:03:10;;;;;;;134.00;51.55;;;;;;;3.94;84.27;100081.16;1771529;79;21162;-58
2021/12/14 11:05:38;;;;;;;123.35;49.25;;;;;;;3.93;84.21;100082.91;1763518;79;21574;-56
2021/12/14 11:08:18;;;;;;;127.10;47.27;;;;;;;3.90;84.60;100086.00;1762647;79;20992;-55
2021/12/14 11:10:39;;;;;;;125.87;47.65;;;;;;;3.87;84.99;100084.73;1768709;79;21453;-58
2021/12/14 11:13:10;;;;;;;112.80;43.60;;;;;;;3.95;84.47;100086.80;1762954;79;21018;-58
2021/12/14 11:15:47;;;;;;;113.68;44.80;;;;;;;3.91;84.87;100081.20;1764414;79;21046;-54
2021/12/14 11:18:18;;;;;;;115.08;44.13;;;;;;;3.90;85.35;100077.75;1772579;79;20954;-57
2021/12/14 11:20:58;;;;;;;106.30;40.20;;;;;;;3.96;85.09;100084.14;1770807;79;21030;-55
2021/12/14 11:23:34;;;;;;;102.78;41.75;;;;;;;3.99;84.86;100089.77;1765318;79;20993;-56
2021/12/14 11:26:08;;;;;;;102.50;38.87;;;;;;;4.03;84.93;100074.52;1772228;79;20978;-55
2021/12/14 11:28:51;;;;;;;102.75;39.27;;;;;;;4.04;84.83;100071.03;1767537;79;21064;-58
2021/12/14 11:31:54;;;;;;;94.87;39.15;;;;;;;4.06;84.77;100066.66;1762270;79;21518;-54
2021/12/14 11:34:37;;;;;;;93.72;37.98;;;;;;;4.10;84.71;100069.62;1769339;79;21087;-55
2021/12/14 11:37:09;;;;;;;99.87;39.90;;;;;;;4.12;84.64;100074.36;1764007;80;21005;-53
2021/12/14 11:39:43;;;;;;;106.03;40.88;;;;;;;4.13;84.72;100073.48;1771560;79;21067;-56
2021/12/14 11:42:14;;;;;;;104.20;40.90;;;;;;;4.16;84.85;100068.66;1768576;79;20988;-56
2021/12/14 11:44:48;;;;;;;107.22;40.95;;;;;;;4.18;84.85;100062.98;1762673;79;20996;-57
2021/12/14 11:50:17;;;;;;;109.97;43.48;;;;;;;4.23;84.74;100062.47;1776678;79;20971;-56
2021/12/14 11:53:11;;;;;;;101.35;41.42;;;;;;;4.20;84.61;100067.30;1770327;79;21018;-56
2021/12/14 11:55:48;;;;;;;115.28;43.78;;;;;;;4.16;84.66;100066.05;1772878;79;21056;-55
2021/12/14 11:58:44;;;;;;;110.90;44.58;;;;;;;4.13;84.64;100068.28;1767799;79;21043;-57
2021/12/14 12:01:44;;;;;;;118.05;44.30;;;;;;;4.08;85.07;100064.89;1774273;79;21055;-56
2021/12/14 12:04:19;;;;;;;105.52;41.55;;;;;;;4.01;85.23;100059.36;1756052;80;20966;-57
2021/12/14 12:09:47;;;;;;;101.10;41.18;;;;;;;3.89;85.23;100059.10;1776048;79;20991;-56
2021/12/14 12:30:30;;;;;;;114.75;44.35;;;;;;;3.81;86.52;100042.31;1767730;79;20978;-52
2021/12/14 12:32:56;;;;;;;111.65;42.58;;;;;;;3.85;86.36;100045.28;1765490;79;20982;-51